sensor_id;sensor_type;location;lat;lon;timestamp;P1;P4;P2;P0;N10;N4;N25;N1;N05;TS
59652;SPS30;45954;49.768;8.636;2023-07-30T00:01:44;30.87;26.27;17.08;5.48;45.51;45.09;42.97;31.09;10.86;1.33
59652;SPS30;45954;49.768;8.636;2023-07-30T00:04:10;37.08;31.54;20.47;6.49;53.89;53.39;50.84;36.51;12.28;1.33
59652;SPS30;45954;49.768;8.636;2023-07-30T00:06:35;34.64;29.46;19.12;6.06;50.28;49.81;47.43;34.04;11.40;1.34
59652;SPS30;45954;49.768;8.636;2023-07-30T00:09:01;34.08;29.00;18.86;6.05;50.16;49.70;47.36;34.24;11.92;1.33
59652;SPS30;45954;49.768;8.636;2023-07-30T00:11:27;35.69;30.39;19.81;6.44;53.42;52.94;50.50;36.81;13.37;1.32
59652;SPS30;45954;49.768;8.636;2023-07-30T00:13:53;30.15;25.69;16.79;5.54;45.90;45.50;43.44;31.92;12.06;1.31
59652;SPS30;45954;49.768;8.636;2023-07-30T00:16:19;33.15;28.23;18.41;5.99;49.70;49.25;46.98;34.27;12.49;1.33
59652;SPS30;45954;49.768;8.636;2023-07-30T00:18:45;37.27;31.73;20.68;6.70;55.57;55.07;52.52;38.20;13.74;1.33
59652;SPS30;45954;49.768;8.636;2023-07-30T00:21:10;40.94;34.85;22.70;7.33;60.83;60.28;57.47;41.74;14.88;1.35
59652;SPS30;45954;49.768;8.636;2023-07-30T00:23:36;36.27;30.90;20.17;6.61;54.75;54.27;51.79;37.90;14.04;1.31
59652;SPS30;45954;49.768;8.636;2023-07-30T00:26:02;31.67;26.98;17.63;5.80;48.08;47.66;45.50;33.39;12.54;1.30
59652;SPS30;45954;49.768;8.636;2023-07-30T00:28:28;39.31;33.49;21.88;7.20;59.66;59.14;56.46;41.42;15.54;1.31
59652;SPS30;45954;49.768;8.636;2023-07-30T00:30:54;34.54;29.43;19.24;6.34;52.54;52.08;49.72;36.52;13.77;1.30
59652;SPS30;45954;49.768;8.636;2023-07-30T00:33:20;33.11;28.22;18.46;6.11;50.60;50.16;47.90;35.26;13.43;1.31
59652;SPS30;45954;49.768;8.636;2023-07-30T00:35:45;35.51;30.29;19.86;6.66;55.11;54.63;52.23;38.71;15.24;1.27
59652;SPS30;45954;49.768;8.636;2023-07-30T00:38:11;35.98;30.70;20.16;6.82;56.39;55.91;53.47;39.82;16.00;1.28
59652;SPS30;45954;49.768;8.636;2023-07-30T00:40:40;39.03;33.31;21.90;7.44;61.56;61.04;58.40;43.61;17.74;1.27
59652;SPS30;45954;49.768;8.636;2023-07-30T00:43:06;31.96;27.26;17.89;6.02;49.81;49.38;47.22;35.07;13.94;1.29
59652;SPS30;45954;49.768;8.636;2023-07-30T00:45:33;30.47;26.03;17.17;5.94;49.11;48.71;46.66;35.18;14.90;1.26
59652;SPS30;45954;49.768;8.636;2023-07-30T00:48:01;36.97;31.58;20.82;7.18;59.33;58.84;56.35;42.40;17.83;1.27
59652;SPS30;45954;49.768;8.636;2023-07-30T00:50:27;40.26;34.35;22.55;7.60;62.92;62.38;59.65;44.36;17.72;1.28
59652;SPS30;45954;49.768;8.636;2023-07-30T00:52:54;35.67;30.44;20.02;6.81;56.30;55.82;53.42;39.90;16.26;1.28
59652;SPS30;45954;49.768;8.636;2023-07-30T00:55:19;33.46;28.54;18.71;6.28;51.95;51.51;49.24;36.51;14.39;1.29
59652;SPS30;45954;49.768;8.636;2023-07-30T00:57:45;36.86;31.41;20.54;6.78;56.17;55.68;53.17;39.08;14.80;1.31
59652;SPS30;45954;49.768;8.636;2023-07-30T01:00:13;33.99;28.94;18.88;6.16;51.06;50.60;48.28;35.25;12.91;1.32
59652;SPS30;45954;49.768;8.636;2023-07-30T01:02:40;31.72;26.98;17.50;5.54;46.02;45.59;43.40;31.14;10.42;1.35
59652;SPS30;45954;49.768;8.636;2023-07-30T01:05:06;31.12;26.47;17.18;5.45;45.24;44.82;42.67;30.65;10.31;1.36
59652;SPS30;45954;49.768;8.636;2023-07-30T01:07:32;37.24;31.69;20.61;6.61;54.87;54.37;51.81;37.47;13.08;1.35
59652;SPS30;45954;49.768;8.636;2023-07-30T01:09:58;38.65;32.91;21.45;6.96;57.70;57.18;54.54;39.70;14.32;1.34
59652;SPS30;45954;49.768;8.636;2023-07-30T01:12:26;32.02;27.27;17.79;5.82;48.21;47.78;45.59;33.33;12.28;1.34
59652;SPS30;45954;49.768;8.636;2023-07-30T01:14:56;34.35;29.27;19.11;6.27;51.99;51.53;49.18;36.03;13.43;1.34
59652;SPS30;45954;49.768;8.636;2023-07-30T01:17:23;35.85;30.50;19.83;6.35;52.71;52.23;49.76;35.95;12.48;1.38
59652;SPS30;45954;49.768;8.636;2023-07-30T01:19:49;35.48;30.15;19.54;6.13;50.94;50.46;48.00;34.26;11.12;1.37
59652;SPS30;45954;49.768;8.636;2023-07-30T01:22:20;40.34;34.30;22.25;7.03;58.35;57.81;55.02;39.42;13.08;1.36
59652;SPS30;45954;49.768;8.636;2023-07-30T01:24:47;39.97;33.99;22.05;6.97;57.90;57.36;54.61;39.15;13.04;1.36
59652;SPS30;45954;49.768;8.636;2023-07-30T01:27:16;32.81;27.91;18.12;5.76;47.85;47.40;45.15;32.48;11.02;1.37
59652;SPS30;45954;49.768;8.636;2023-07-30T01:29:52;35.95;30.57;19.82;6.25;51.95;51.46;48.98;35.07;11.60;1.38
59652;SPS30;45954;49.768;8.636;2023-07-30T01:32:40;32.93;27.99;18.13;5.69;47.24;46.80;44.52;31.76;10.28;1.37
59652;SPS30;45954;49.768;8.636;2023-07-30T01:35:07;42.09;35.77;23.16;7.24;60.16;59.59;56.68;40.36;12.93;1.39
59652;SPS30;45954;49.768;8.636;2023-07-30T01:37:34;33.33;28.32;18.33;5.73;47.58;47.13;44.83;31.90;10.18;1.40
59652;SPS30;45954;49.768;8.636;2023-07-30T01:40:04;35.83;30.45;19.71;6.15;51.12;50.64;48.16;34.26;10.91;1.40
59652;SPS30;45954;49.768;8.636;2023-07-30T01:42:31;35.80;30.42;19.67;6.11;50.82;50.33;47.85;33.95;10.64;1.41
59652;SPS30;45954;49.768;8.636;2023-07-30T01:44:57;28.50;24.21;15.65;4.86;40.37;39.98;38.00;26.93;8.38;1.43
59652;SPS30;45954;49.768;8.636;2023-07-30T01:47:23;39.46;33.51;21.63;6.65;55.32;54.78;52.04;36.68;11.03;1.42
59652;SPS30;45954;49.768;8.636;2023-07-30T01:49:49;33.15;28.13;18.12;5.50;45.82;45.36;43.05;30.11;8.62;1.41
59652;SPS30;45954;49.768;8.636;2023-07-30T01:52:15;42.04;35.66;22.95;6.92;57.63;57.06;54.12;37.68;10.46;1.41
59652;SPS30;45954;49.768;8.636;2023-07-30T01:54:41;32.87;27.90;17.97;5.45;45.34;44.89;42.60;29.76;8.45;1.42
59652;SPS30;45954;49.768;8.636;2023-07-30T01:57:07;47.24;40.09;25.83;7.85;65.38;64.73;61.44;43.00;12.37;1.41
59652;SPS30;45954;49.768;8.636;2023-07-30T01:59:33;32.52;27.59;17.76;5.36;44.65;44.21;41.94;29.22;8.16;1.41
59652;SPS30;45954;49.768;8.636;2023-07-30T02:01:59;35.46;30.09;19.38;5.88;48.96;48.47;46.00;32.15;9.17;1.41
59652;SPS30;45954;49.768;8.636;2023-07-30T02:04:25;31.78;27.00;17.44;5.39;44.84;44.41;42.21;29.85;9.17;1.40
59652;SPS30;45954;49.768;8.636;2023-07-30T02:06:51;39.59;33.61;21.69;6.65;55.34;54.80;52.05;36.62;10.91;1.41
59652;SPS30;45954;49.768;8.636;2023-07-30T02:09:16;37.85;32.11;20.64;6.20;51.63;51.11;48.47;33.65;9.16;1.44
59652;SPS30;45954;49.768;8.636;2023-07-30T02:11:42;47.38;40.19;25.84;7.75;64.59;63.94;60.63;42.07;11.42;1.45
59652;SPS30;45954;49.768;8.636;2023-07-30T02:14:08;41.81;35.47;22.82;6.87;57.18;56.60;53.68;37.32;10.26;1.44
59652;SPS30;45954;49.768;8.636;2023-07-30T02:16:35;52.56;44.59;28.68;8.63;71.85;71.13;67.46;46.88;12.86;1.44
59652;SPS30;45954;49.768;8.636;2023-07-30T02:19:04;43.05;36.52;23.50;7.08;58.97;58.38;55.38;38.53;10.66;1.43
59652;SPS30;45954;49.768;8.636;2023-07-30T02:21:30;37.42;31.75;20.45;6.20;51.61;51.10;48.49;33.87;9.62;1.42
59652;SPS30;45954;49.768;8.636;2023-07-30T02:23:58;43.15;36.63;23.62;7.21;60.01;59.42;56.42;39.59;11.58;1.41
59652;SPS30;45954;49.768;8.636;2023-07-30T02:26:25;33.67;28.59;18.46;5.68;47.27;46.81;44.47;31.37;9.49;1.41
59652;SPS30;45954;49.768;8.636;2023-07-30T02:28:51;38.59;32.77;21.17;6.53;54.29;53.76;51.08;36.07;10.98;1.40
59652;SPS30;45954;49.768;8.636;2023-07-30T02:31:16;33.71;28.64;18.53;5.77;47.93;47.47;45.14;32.05;10.10;1.37
59652;SPS30;45954;49.768;8.636;2023-07-30T02:33:42;31.50;26.78;17.35;5.45;45.30;44.87;42.70;30.50;9.94;1.35
59652;SPS30;45954;49.768;8.636;2023-07-30T02:36:08;35.87;30.47;19.68;6.07;50.44;49.96;47.47;33.51;10.19;1.37
59652;SPS30;45954;49.768;8.636;2023-07-30T02:38:34;39.95;33.89;21.81;6.58;54.81;54.26;51.47;35.85;9.98;1.41
59652;SPS30;45954;49.768;8.636;2023-07-30T02:40:59;38.22;32.44;20.88;6.32;52.65;52.13;49.47;34.53;9.76;1.40
59652;SPS30;45954;49.768;8.636;2023-07-30T02:43:25;34.61;29.41;19.03;5.92;49.24;48.77;46.37;32.94;10.40;1.38
59652;SPS30;45954;49.768;8.636;2023-07-30T02:45:51;32.11;27.29;17.67;5.52;45.86;45.43;43.21;30.75;9.82;1.38
59652;SPS30;45954;49.768;8.636;2023-07-30T02:48:17;41.04;34.90;22.64;7.17;59.57;59.01;56.19;40.33;13.51;1.36
59652;SPS30;45954;49.768;8.636;2023-07-30T02:50:43;33.06;28.10;18.22;5.74;47.69;47.24;44.96;32.17;10.59;1.38
59652;SPS30;45954;49.768;8.636;2023-07-30T02:53:09;30.45;25.88;16.75;5.22;43.40;42.98;40.88;29.06;9.22;1.39
59652;SPS30;45954;49.768;8.636;2023-07-30T02:55:34;36.32;30.88;20.03;6.33;52.59;52.10;49.59;35.55;11.83;1.37
59652;SPS30;45954;49.768;8.636;2023-07-30T02:58:00;33.70;28.65;18.57;5.85;48.56;48.10;45.78;32.74;10.74;1.38
59652;SPS30;45954;49.768;8.636;2023-07-30T03:00:26;38.57;32.78;21.22;6.63;55.10;54.58;51.91;36.95;11.81;1.40
59652;SPS30;45954;49.768;8.636;2023-07-30T03:02:52;32.38;27.50;17.76;5.48;45.55;45.11;42.86;30.26;9.21;1.41
59652;SPS30;45954;49.768;8.636;2023-07-30T03:05:18;31.33;26.63;17.24;5.38;44.75;44.32;42.16;30.01;9.59;1.40
59652;SPS30;45954;49.768;8.636;2023-07-30T03:07:43;34.41;29.25;18.95;5.94;49.36;48.89;46.51;33.18;10.73;1.39
59652;SPS30;45954;49.768;8.636;2023-07-30T03:10:09;31.95;27.15;17.58;5.50;45.72;45.28;43.07;30.69;9.86;1.39
59652;SPS30;45954;49.768;8.636;2023-07-30T03:12:35;33.08;28.11;18.18;5.65;46.94;46.49;44.20;31.35;9.82;1.40
59652;SPS30;45954;49.768;8.636;2023-07-30T03:15:01;33.18;28.18;18.21;5.63;46.83;46.38;44.08;31.18;9.60;1.39
59652;SPS30;45954;49.768;8.636;2023-07-30T03:17:27;36.42;30.94;20.02;6.23;51.75;51.25;48.73;34.59;10.87;1.39
59652;SPS30;45954;49.768;8.636;2023-07-30T03:19:53;41.43;35.19;22.75;7.06;58.67;58.10;55.23;39.14;12.17;1.40
59652;SPS30;45954;49.768;8.636;2023-07-30T03:22:19;34.40;29.24;18.96;5.98;49.63;49.17;46.79;33.49;11.03;1.36
59652;SPS30;45954;49.768;8.636;2023-07-30T03:24:48;35.27;29.96;19.36;5.98;49.74;49.26;46.81;33.10;10.16;1.38
59652;SPS30;45954;49.768;8.636;2023-07-30T03:27:14;35.47;30.10;19.40;5.90;49.07;48.59;46.12;32.27;9.27;1.39
59652;SPS30;45954;49.768;8.636;2023-07-30T03:29:40;33.50;28.43;18.30;5.54;46.12;45.67;43.33;30.24;8.53;1.41
59652;SPS30;45954;49.768;8.636;2023-07-30T03:32:06;40.59;34.51;22.36;7.02;58.35;57.80;55.00;39.28;12.79;1.36
59652;SPS30;45954;49.768;8.636;2023-07-30T03:34:32;38.18;32.47;21.08;6.70;55.61;55.09;52.46;37.72;12.75;1.35
59652;SPS30;45954;49.768;8.636;2023-07-30T03:36:58;35.34;30.06;19.51;6.20;51.48;51.00;48.57;34.92;11.82;1.35
59652;SPS30;45954;49.768;8.636;2023-07-30T03:39:25;42.94;36.51;23.68;7.48;62.14;61.56;58.60;41.99;13.95;1.35
59652;SPS30;45954;49.768;8.636;2023-07-30T03:41:51;38.37;32.64;21.20;6.76;56.08;55.57;52.93;38.12;13.02;1.35
59652;SPS30;45954;49.768;8.636;2023-07-30T03:44:17;31.92;27.16;17.65;5.64;46.81;46.38;44.18;31.88;10.98;1.36
59652;SPS30;45954;49.768;8.636;2023-07-30T03:46:43;39.08;33.25;21.62;6.93;57.50;56.98;54.29;39.24;13.64;1.37
59652;SPS30;45954;49.768;8.636;2023-07-30T03:49:09;40.96;34.86;22.68;7.29;60.48;59.93;57.12;41.35;14.51;1.37
59652;SPS30;45954;49.768;8.636;2023-07-30T03:51:35;29.74;25.30;16.46;5.28;43.82;43.42;41.38;29.93;10.45;1.36
59652;SPS30;45954;49.768;8.636;2023-07-30T03:54:01;36.33;30.88;20.01;6.28;52.18;51.69;49.18;35.11;11.40;1.38
59652;SPS30;45954;49.768;8.636;2023-07-30T03:56:27;36.78;31.29;20.33;6.49;53.88;53.39;50.86;36.68;12.61;1.35
59652;SPS30;45954;49.768;8.636;2023-07-30T03:58:53;43.62;37.09;24.06;7.61;63.19;62.60;59.59;42.73;14.23;1.37
59652;SPS30;45954;49.768;8.636;2023-07-30T04:01:19;32.95;28.02;18.18;5.75;47.77;47.33;45.06;32.32;10.79;1.36
59652;SPS30;45954;49.768;8.636;2023-07-30T04:03:45;38.25;32.51;21.04;6.58;54.65;54.14;51.49;36.66;11.73;1.38
59652;SPS30;45954;49.768;8.636;2023-07-30T04:06:11;39.22;33.34;21.62;6.82;56.64;56.11;53.40;38.23;12.63;1.37
59652;SPS30;45954;49.768;8.636;2023-07-30T04:08:36;34.47;29.32;19.03;6.04;50.17;49.70;47.32;34.01;11.48;1.35
59652;SPS30;45954;49.768;8.636;2023-07-30T04:11:03;33.54;28.57;18.64;6.08;50.38;49.93;47.64;34.78;12.73;1.32
59652;SPS30;45954;49.768;8.636;2023-07-30T04:13:29;38.95;33.17;21.65;7.08;58.67;58.15;55.49;40.57;14.96;1.33
59652;SPS30;45954;49.768;8.636;2023-07-30T04:15:55;32.64;27.80;18.13;5.90;48.93;48.49;46.25;33.73;12.29;1.34
59652;SPS30;45954;49.768;8.636;2023-07-30T04:18:20;33.62;28.63;18.67;6.07;50.36;49.90;47.60;34.71;12.62;1.32
59652;SPS30;45954;49.768;8.636;2023-07-30T04:20:47;40.85;34.81;22.76;7.52;62.29;61.75;58.96;43.36;16.44;1.31
59652;SPS30;45954;49.768;8.636;2023-07-30T04:23:14;36.10;30.75;20.08;6.58;54.53;54.05;51.59;37.77;14.02;1.32
59652;SPS30;45954;49.768;8.636;2023-07-30T04:25:40;32.39;27.56;17.93;5.76;47.79;47.36;45.13;32.66;11.44;1.35
59652;SPS30;45954;49.768;8.636;2023-07-30T04:28:06;36.99;31.47;20.47;6.56;54.45;53.95;51.41;37.16;12.94;1.36
59652;SPS30;45954;49.768;8.636;2023-07-30T04:30:32;29.86;25.43;16.60;5.43;44.97;44.57;42.53;31.09;11.45;1.33
59652;SPS30;45954;49.768;8.636;2023-07-30T04:32:58;29.62;25.20;16.38;5.24;43.52;43.12;41.08;29.67;10.28;1.36
59652;SPS30;45954;49.768;8.636;2023-07-30T04:35:24;38.81;33.02;21.46;6.85;56.89;56.36;53.69;38.73;13.32;1.35
59652;SPS30;45954;49.768;8.636;2023-07-30T04:37:49;41.21;35.06;22.78;7.27;60.35;59.79;56.95;41.06;14.09;1.34
59652;SPS30;45954;49.768;8.636;2023-07-30T04:40:15;32.50;27.69;18.07;5.91;49.01;48.58;46.36;33.91;12.53;1.31
59652;SPS30;45954;49.768;8.636;2023-07-30T04:42:41;33.34;28.42;18.60;6.17;51.11;50.66;48.39;35.67;13.69;1.31
59652;SPS30;45954;49.768;8.636;2023-07-30T04:45:07;32.87;28.04;18.41;6.21;51.36;50.92;48.69;36.21;14.46;1.30
59652;SPS30;45954;49.768;8.636;2023-07-30T04:47:33;30.16;25.74;16.93;5.77;47.69;47.29;45.26;33.83;13.84;1.29
59652;SPS30;45954;49.768;8.636;2023-07-30T04:49:59;32.87;28.01;18.32;6.06;50.22;49.78;47.55;35.00;13.33;1.33
59652;SPS30;45954;49.768;8.636;2023-07-30T04:52:25;30.98;26.39;17.21;5.61;46.53;46.11;43.99;32.11;11.75;1.33
59652;SPS30;45954;49.768;8.636;2023-07-30T04:54:51;30.49;25.97;16.97;5.59;46.29;45.88;43.80;32.14;12.07;1.33
59652;SPS30;45954;49.768;8.636;2023-07-30T04:57:17;38.50;32.77;21.35;6.90;57.26;56.74;54.10;39.31;14.05;1.35
59652;SPS30;45954;49.768;8.636;2023-07-30T04:59:42;30.15;25.68;16.75;5.46;45.28;44.88;42.81;31.25;11.44;1.33
59652;SPS30;45954;49.768;8.636;2023-07-30T05:02:08;37.55;31.98;20.87;6.83;56.57;56.07;53.50;39.12;14.43;1.34
59652;SPS30;45954;49.768;8.636;2023-07-30T05:04:34;37.32;31.74;20.60;6.53;54.25;53.75;51.18;36.76;12.37;1.36
59652;SPS30;45954;49.768;8.636;2023-07-30T05:07:00;34.13;29.03;18.86;6.01;49.90;49.44;47.10;33.93;11.60;1.33
59652;SPS30;45954;49.768;8.636;2023-07-30T05:09:26;34.56;29.40;19.11;6.11;50.73;50.26;47.89;34.56;11.94;1.33
59652;SPS30;45954;49.768;8.636;2023-07-30T05:11:51;31.28;26.62;17.31;5.55;46.02;45.60;43.45;31.39;10.91;1.34
59652;SPS30;45954;49.768;8.636;2023-07-30T05:14:17;33.69;28.68;18.67;6.02;49.97;49.52;47.21;34.25;12.16;1.33
59652;SPS30;45954;49.768;8.636;2023-07-30T05:16:43;40.43;34.39;22.34;7.11;59.02;58.48;55.70;40.09;13.65;1.34
59652;SPS30;45954;49.768;8.636;2023-07-30T05:19:09;33.36;28.41;18.54;6.05;50.15;49.70;47.42;34.63;12.70;1.32
59652;SPS30;45954;49.768;8.636;2023-07-30T05:21:35;30.58;26.09;17.15;5.81;48.10;47.69;45.63;34.03;13.78;1.28
59652;SPS30;45954;49.768;8.636;2023-07-30T05:24:00;35.73;30.57;20.27;7.20;59.44;58.98;56.60;43.24;19.33;1.24
59652;SPS30;45954;49.768;8.636;2023-07-30T05:26:26;30.18;25.83;17.14;6.12;50.46;50.07;48.06;36.79;16.58;1.24
59652;SPS30;45954;49.768;8.636;2023-07-30T05:28:52;31.36;26.80;17.70;6.16;50.91;50.50;48.39;36.60;15.71;1.28
59652;SPS30;45954;49.768;8.636;2023-07-30T05:31:18;31.26;26.71;17.64;6.13;50.63;50.22;48.12;36.36;15.54;1.27
59652;SPS30;45954;49.768;8.636;2023-07-30T05:33:44;29.31;25.06;16.56;5.79;47.83;47.44;45.48;34.47;14.92;1.25
59652;SPS30;45954;49.768;8.636;2023-07-30T05:36:10;27.84;23.79;15.73;5.50;45.42;45.05;43.19;32.73;14.17;1.25
59652;SPS30;45954;49.768;8.636;2023-07-30T05:38:35;36.65;31.26;20.50;6.88;56.94;56.45;53.97;40.02;15.80;1.30
59652;SPS30;45954;49.768;8.636;2023-07-30T05:41:01;32.02;27.33;17.96;6.09;50.40;49.97;47.81;35.66;14.45;1.28
59652;SPS30;45954;49.768;8.636;2023-07-30T05:43:27;30.92;26.39;17.36;5.93;48.99;48.58;46.50;34.79;14.29;1.26
59652;SPS30;45954;49.768;8.636;2023-07-30T05:45:53;35.61;30.36;19.89;6.63;54.93;54.46;52.04;38.47;14.96;1.29
59652;SPS30;45954;49.768;8.636;2023-07-30T05:48:19;36.58;31.12;20.22;6.45;53.55;53.05;50.54;36.43;12.49;1.33
59652;SPS30;45954;49.768;8.636;2023-07-30T05:50:44;31.90;27.14;17.65;5.65;46.87;46.44;44.25;31.96;11.07;1.33
59652;SPS30;45954;49.768;8.636;2023-07-30T05:53:10;36.31;30.90;20.12;6.49;53.83;53.34;50.85;36.89;13.08;1.34
59652;SPS30;45954;49.768;8.636;2023-07-30T05:55:36;32.09;27.30;17.74;5.67;47.06;46.63;44.42;32.05;11.05;1.36
59652;SPS30;45954;49.768;8.636;2023-07-30T05:58:02;44.69;38.03;24.73;7.93;65.80;65.20;62.13;44.92;15.64;1.36
59652;SPS30;45954;49.768;8.636;2023-07-30T06:00:28;36.65;31.17;20.25;6.45;53.51;53.02;50.49;36.35;12.38;1.35
59652;SPS30;45954;49.768;8.636;2023-07-30T06:02:54;32.63;27.76;18.06;5.79;48.04;47.60;45.36;32.79;11.42;1.35
59652;SPS30;45954;49.768;8.636;2023-07-30T06:05:20;35.66;30.36;19.79;6.42;53.26;52.78;50.34;36.65;13.24;1.34
59652;SPS30;45954;49.768;8.636;2023-07-30T06:07:45;32.49;27.66;18.03;5.86;48.58;48.14;45.92;33.45;12.12;1.33
59652;SPS30;45954;49.768;8.636;2023-07-30T06:10:11;37.37;31.78;20.63;6.54;54.30;53.79;51.22;36.78;12.36;1.36
59652;SPS30;45954;49.768;8.636;2023-07-30T06:12:37;34.88;29.69;19.31;6.21;51.51;51.04;48.64;35.22;12.36;1.33
59652;SPS30;45954;49.768;8.636;2023-07-30T06:15:04;31.64;26.96;17.62;5.81;48.14;47.72;45.56;33.47;12.63;1.29
59652;SPS30;45954;49.768;8.636;2023-07-30T06:17:31;38.17;32.54;21.30;7.08;58.66;58.15;55.55;41.00;15.82;1.30
59652;SPS30;45954;49.768;8.636;2023-07-30T06:19:57;35.09;29.87;19.47;6.32;52.42;51.94;49.54;36.07;13.04;1.32
59652;SPS30;45954;49.768;8.636;2023-07-30T06:22:26;38.80;33.08;21.66;7.21;59.71;59.19;56.56;41.76;16.16;1.29
59652;SPS30;45954;49.768;8.636;2023-07-30T06:24:52;32.57;27.79;18.24;6.14;50.84;50.40;48.20;35.82;14.28;1.27
59652;SPS30;45954;49.768;8.636;2023-07-30T06:27:18;43.39;37.01;24.26;8.13;67.32;66.74;63.80;47.29;18.61;1.26
59652;SPS30;45954;49.768;8.636;2023-07-30T06:29:44;39.57;33.76;22.15;7.45;61.66;61.13;58.45;43.41;17.24;1.26
59652;SPS30;45954;49.768;8.636;2023-07-30T06:32:10;30.31;25.89;17.07;5.89;48.65;48.25;46.21;34.78;14.63;1.25
59652;SPS30;45954;49.768;8.636;2023-07-30T06:34:36;35.81;30.57;20.12;6.87;56.83;56.35;53.94;40.39;16.63;1.27
59652;SPS30;45954;49.768;8.636;2023-07-30T06:37:02;29.75;25.42;16.79;5.84;48.24;47.85;45.85;34.66;14.84;1.26
59652;SPS30;45954;49.768;8.636;2023-07-30T06:39:28;35.86;30.61;20.15;6.90;57.03;56.56;54.14;40.58;16.78;1.27
59652;SPS30;45954;49.768;8.636;2023-07-30T06:41:54;30.11;25.70;16.90;5.75;47.56;47.16;45.12;33.72;13.76;1.26
59652;SPS30;45954;49.768;8.636;2023-07-30T06:44:20;35.86;30.57;20.03;6.68;55.28;54.80;52.37;38.70;15.03;1.29
59652;SPS30;45954;49.768;8.636;2023-07-30T06:46:45;35.10;29.92;19.59;6.52;53.95;53.48;51.10;37.71;14.55;1.30
59652;SPS30;45954;49.768;8.636;2023-07-30T06:49:11;34.50;29.43;19.31;6.49;53.74;53.28;50.94;37.82;15.01;1.28
59652;SPS30;45954;49.768;8.636;2023-07-30T06:51:37;31.29;26.72;17.59;6.02;49.76;49.34;47.24;35.40;14.63;1.25
59652;SPS30;45954;49.768;8.636;2023-07-30T06:54:03;44.87;38.26;25.06;8.36;69.22;68.62;65.57;48.48;18.85;1.29
59652;SPS30;45954;49.768;8.636;2023-07-30T06:56:29;39.44;33.61;21.98;7.26;60.16;59.64;56.95;41.88;15.90;1.29
59652;SPS30;45954;49.768;8.636;2023-07-30T06:58:55;34.56;29.49;19.36;6.53;54.07;53.61;51.27;38.14;15.27;1.27
59652;SPS30;45954;49.768;8.636;2023-07-30T07:01:20;34.62;29.54;19.39;6.55;54.16;53.70;51.35;38.20;15.29;1.28
59652;SPS30;45954;49.768;8.636;2023-07-30T07:03:46;32.78;27.97;18.35;6.18;51.17;50.73;48.51;36.06;14.37;1.27
59652;SPS30;45954;49.768;8.636;2023-07-30T07:06:12;33.06;28.23;18.57;6.34;52.45;52.01;49.78;37.27;15.33;1.27
59652;SPS30;45954;49.768;8.636;2023-07-30T07:08:38;36.41;31.04;20.32;6.76;55.98;55.50;53.02;39.14;15.12;1.29
59652;SPS30;45954;49.768;8.636;2023-07-30T07:11:04;35.22;30.04;19.70;6.61;54.70;54.23;51.84;38.44;15.16;1.27
59652;SPS30;45954;49.768;8.636;2023-07-30T07:13:30;38.72;33.09;21.87;7.63;63.05;62.54;59.94;45.39;19.58;1.21
59652;SPS30;45954;49.768;8.636;2023-07-30T07:15:55;33.05;28.29;18.81;6.76;55.74;55.31;53.12;40.81;18.64;1.20
59652;SPS30;45954;49.768;8.636;2023-07-30T07:18:21;37.80;32.34;21.46;7.64;63.07;62.57;60.06;45.94;20.63;1.21
59652;SPS30;45954;49.768;8.636;2023-07-30T07:20:47;33.64;28.81;19.16;6.90;56.90;56.46;54.23;41.71;19.13;1.18
59652;SPS30;45954;49.768;8.636;2023-07-30T07:23:13;31.66;27.08;17.93;6.33;52.21;51.80;49.68;37.82;16.66;1.21
59652;SPS30;45954;49.768;8.636;2023-07-30T07:25:39;31.93;27.31;18.07;6.36;52.52;52.10;49.97;37.99;16.67;1.22
59652;SPS30;45954;49.768;8.636;2023-07-30T07:28:05;37.39;31.94;21.05;7.26;60.00;59.50;56.99;42.88;18.02;1.25
59652;SPS30;45954;49.768;8.636;2023-07-30T07:30:30;34.20;29.20;19.23;6.60;54.54;54.08;51.78;38.85;16.14;1.27
59652;SPS30;45954;49.768;8.636;2023-07-30T07:33:00;37.55;32.09;21.18;7.36;60.80;60.30;57.79;43.65;18.64;1.25
59652;SPS30;45954;49.768;8.636;2023-07-30T07:35:25;32.60;27.86;18.39;6.39;52.77;52.34;50.16;37.88;16.17;1.24
59652;SPS30;45954;49.768;8.636;2023-07-30T07:37:51;38.60;32.95;21.69;7.41;61.26;60.75;58.15;43.54;17.93;1.27
59652;SPS30;45954;49.768;8.636;2023-07-30T07:40:17;38.76;33.01;21.52;7.00;58.01;57.49;54.84;39.96;14.50;1.32
59652;SPS30;45954;49.768;8.636;2023-07-30T07:42:43;36.35;31.00;20.33;6.81;56.36;55.88;53.41;39.58;15.56;1.27
59652;SPS30;45954;49.768;8.636;2023-07-30T07:45:09;33.75;28.81;18.96;6.48;53.60;53.16;50.88;38.11;15.72;1.26
59652;SPS30;45954;49.768;8.636;2023-07-30T07:47:35;39.88;34.04;22.39;7.63;63.10;62.57;59.88;44.78;18.34;1.26
59652;SPS30;45954;49.768;8.636;2023-07-30T07:50:01;35.95;30.71;20.27;7.03;58.11;57.63;55.22;41.68;17.75;1.24
59652;SPS30;45954;49.768;8.636;2023-07-30T07:52:26;37.94;32.43;21.43;7.48;61.75;61.25;58.71;44.45;19.16;1.23
59652;SPS30;45954;49.768;8.636;2023-07-30T07:54:52;33.58;28.65;18.81;6.34;52.49;52.04;49.77;37.02;14.80;1.27
59652;SPS30;45954;49.768;8.636;2023-07-30T07:57:18;38.38;32.69;21.33;6.97;57.75;57.24;54.61;39.91;14.68;1.32
59652;SPS30;45954;49.768;8.636;2023-07-30T07:59:44;37.14;31.58;20.49;6.49;53.87;53.36;50.80;36.45;12.19;1.35
59652;SPS30;45954;49.768;8.636;2023-07-30T08:02:11;47.19;40.12;26.01;8.19;68.04;67.40;64.14;45.88;15.08;1.36
59652;SPS30;45954;49.768;8.636;2023-07-30T08:04:37;43.52;36.98;23.91;7.42;61.72;61.12;58.11;41.21;12.87;1.39
59652;SPS30;45954;49.768;8.636;2023-07-30T08:07:05;55.97;47.48;30.54;9.19;76.53;75.76;71.85;49.95;13.72;1.45
59652;SPS30;45954;49.768;8.636;2023-07-30T08:09:31;48.67;41.25;26.46;7.83;65.27;64.60;61.19;42.06;10.66;1.45
59652;SPS30;45954;49.768;8.636;2023-07-30T08:11:57;41.29;35.00;22.44;6.64;55.32;54.75;51.86;35.63;8.99;1.45
59652;SPS30;45954;49.768;8.636;2023-07-30T08:14:25;50.68;42.96;27.55;8.13;67.81;67.11;63.56;43.63;10.94;1.46
59652;SPS30;45954;49.768;8.636;2023-07-30T08:16:51;46.47;39.39;25.27;7.48;62.39;61.76;58.50;40.24;10.25;1.45
59652;SPS30;45954;49.768;8.636;2023-07-30T08:19:17;38.73;32.85;21.12;6.34;52.81;52.28;49.57;34.41;9.35;1.42
59652;SPS30;45954;49.768;8.636;2023-07-30T08:21:43;37.53;31.85;20.52;6.24;51.95;51.44;48.83;34.18;9.84;1.40
59652;SPS30;45954;49.768;8.636;2023-07-30T08:24:08;32.91;27.92;17.96;5.40;44.99;44.54;42.24;29.35;8.05;1.41
59652;SPS30;45954;49.768;8.636;2023-07-30T08:26:34;44.70;37.92;24.39;7.34;61.14;60.53;57.41;39.92;10.99;1.41
59652;SPS30;45954;49.768;8.636;2023-07-30T08:29:00;35.32;29.96;19.26;5.78;48.16;47.68;45.21;31.37;8.52;1.42
59652;SPS30;45954;49.768;8.636;2023-07-30T08:31:26;51.16;43.42;27.96;8.47;70.48;69.78;66.21;46.22;13.06;1.39
59652;SPS30;45954;49.768;8.636;2023-07-30T08:33:52;35.13;29.81;19.19;5.80;48.31;47.83;45.37;31.64;8.89;1.40
59652;SPS30;45954;49.768;8.636;2023-07-30T08:36:18;35.90;30.46;19.59;5.90;49.17;48.68;46.18;32.13;8.89;1.41
59652;SPS30;45954;49.768;8.636;2023-07-30T08:38:44;41.48;35.21;22.72;6.96;57.91;57.35;54.46;38.30;11.37;1.38
59652;SPS30;45954;49.768;8.636;2023-07-30T08:41:10;35.69;30.30;19.54;5.98;49.74;49.25;46.77;32.86;9.69;1.39
59652;SPS30;45954;49.768;8.636;2023-07-30T08:43:35;34.12;28.98;18.70;5.74;47.78;47.31;44.94;31.65;9.49;1.37
59652;SPS30;45954;49.768;8.636;2023-07-30T08:46:01;39.84;33.85;21.91;6.84;56.87;56.33;53.58;38.13;12.17;1.36
59652;SPS30;45954;49.768;8.636;2023-07-30T08:48:28;41.50;35.24;22.74;6.98;58.05;57.49;54.60;38.44;11.48;1.38
59652;SPS30;45954;49.768;8.636;2023-07-30T08:50:56;34.24;29.07;18.75;5.73;47.66;47.19;44.81;31.46;9.23;1.39
59652;SPS30;45954;49.768;8.636;2023-07-30T08:53:26;42.86;36.44;23.64;7.46;61.99;61.41;58.46;41.88;13.89;1.34